createdAt,value
2019-04-10T00:01:15.997Z,48.55
2019-04-10T00:03:46.326Z,44.08
2019-04-10T00:06:18.146Z,45.17
2019-04-10T00:08:50.490Z,46.63
2019-04-10T00:11:20.856Z,44.77
2019-04-10T00:13:51.198Z,50.52
2019-04-10T00:16:22.419Z,48.13
2019-04-10T00:18:53.907Z,43.55
2019-04-10T00:21:25.176Z,50.03
2019-04-10T00:23:55.678Z,44.83
2019-04-10T00:26:25.977Z,45.20
2019-04-10T00:28:56.274Z,46.42
2019-04-10T00:31:26.560Z,47.10
2019-04-10T00:33:57.031Z,55.76
2019-04-10T00:36:27.312Z,44.93
2019-04-10T00:38:58.027Z,52.23
2019-04-10T00:41:28.529Z,49.93
2019-04-10T00:43:59.396Z,45.98
2019-04-10T00:46:30.422Z,46.10
2019-04-10T00:49:01.024Z,47.90
2019-04-10T00:51:31.300Z,50.33
2019-04-10T00:54:01.587Z,53.90
2019-04-10T00:56:32.593Z,49.27
2019-04-10T00:59:03.820Z,47.88
2019-04-10T01:01:34.163Z,49.23
2019-04-10T01:04:04.473Z,45.85
2019-04-10T01:06:35.694Z,49.40
2019-04-10T01:09:09.056Z,45.15
2019-04-10T01:11:39.343Z,45.00
2019-04-10T01:14:09.687Z,48.70
2019-04-10T01:16:40.227Z,52.95
2019-04-10T01:19:10.512Z,44.60
2019-04-10T01:21:40.807Z,46.83
2019-04-10T01:24:11.159Z,49.23
2019-04-10T01:26:41.393Z,47.73
2019-04-10T01:29:11.675Z,41.45
2019-04-10T01:31:43.428Z,44.88
2019-04-10T01:34:14.292Z,46.73
2019-04-10T01:36:44.588Z,43.87
2019-04-10T01:39:16.508Z,44.13
2019-04-10T01:41:46.838Z,40.52
2019-04-10T01:44:17.089Z,42.48
2019-04-10T01:46:47.377Z,39.00
2019-04-10T01:49:17.747Z,41.07
2019-04-10T01:51:48.019Z,41.10
2019-04-10T01:54:19.292Z,38.98
2019-04-10T01:56:50.136Z,37.83
2019-04-10T01:59:22.364Z,40.33
2019-04-10T02:01:54.752Z,39.58
2019-04-10T02:04:25.026Z,36.65
2019-04-10T02:06:55.926Z,44.33
2019-04-10T02:09:26.296Z,36.80
2019-04-10T02:11:56.594Z,35.78
2019-04-10T02:14:27.951Z,36.47
2019-04-10T02:16:59.038Z,34.93
2019-04-10T02:19:30.210Z,34.08
2019-04-10T02:22:00.648Z,31.86
2019-04-10T02:24:31.343Z,33.85
2019-04-10T02:27:02.403Z,34.70
2019-04-10T02:29:33.580Z,31.93
2019-04-10T02:32:04.750Z,30.50
2019-04-10T02:34:35.014Z,34.20
2019-04-10T02:37:06.776Z,36.55
2019-04-10T02:39:42.483Z,33.70
2019-04-10T02:42:10.154Z,35.65
2019-04-10T02:44:41.671Z,32.03
2019-04-10T02:47:12.951Z,29.45
2019-04-10T02:49:44.562Z,33.10
2019-04-10T02:52:14.948Z,30.88
2019-04-10T02:54:46.000Z,29.02
2019-04-10T02:57:17.414Z,27.98
2019-04-10T02:59:48.876Z,27.13
2019-04-10T03:02:20.264Z,27.32
2019-04-10T03:04:51.042Z,30.43
2019-04-10T03:07:22.010Z,33.48
2019-04-10T03:10:07.425Z,29.32
2019-04-10T03:12:25.592Z,26.37
2019-04-10T03:14:56.258Z,29.35
2019-04-10T03:17:26.568Z,26.50
2019-04-10T03:19:58.801Z,28.00
2019-04-10T03:22:29.226Z,27.58
2019-04-10T03:25:00.319Z,25.70
2019-04-10T03:27:30.750Z,29.37
2019-04-10T03:30:02.944Z,25.45
2019-04-10T03:32:50.265Z,26.02
2019-04-10T03:35:23.296Z,25.72
2019-04-10T03:37:53.578Z,25.48
2019-04-10T03:40:24.119Z,29.60
2019-04-10T03:42:55.094Z,25.90
2019-04-10T03:45:25.467Z,27.13
2019-04-10T03:47:55.849Z,26.10
2019-04-10T03:50:26.125Z,27.10
2019-04-10T03:52:56.679Z,25.12
2019-04-10T03:55:27.248Z,24.30
2019-04-10T03:57:58.643Z,26.37
2019-04-10T04:00:30.005Z,26.70
2019-04-10T04:03:00.380Z,25.40
2019-04-10T04:05:30.876Z,29.48
2019-04-10T04:08:01.361Z,27.65
2019-04-10T04:10:31.601Z,23.50
2019-04-10T04:13:04.975Z,32.36
2019-04-10T04:15:35.821Z,30.72
2019-04-10T04:18:07.218Z,27.95
2019-04-10T04:20:37.509Z,25.02
2019-04-10T04:23:07.789Z,25.10
2019-04-10T04:25:38.692Z,23.83
2019-04-10T04:28:09.034Z,27.07
2019-04-10T04:30:40.426Z,24.80
2019-04-10T04:33:10.887Z,24.70
2019-04-10T04:35:41.159Z,27.13
2019-04-10T04:38:11.488Z,23.10
2019-04-10T04:40:42.092Z,23.33
2019-04-10T04:43:12.540Z,25.60
2019-04-10T04:45:42.810Z,24.92
2019-04-10T04:48:13.089Z,22.93
2019-04-10T04:50:43.614Z,24.70
2019-04-10T04:53:14.285Z,32.98
2019-04-10T04:55:44.979Z,29.34
2019-04-10T04:58:15.253Z,21.25
2019-04-10T05:00:45.947Z,23.10
2019-04-10T05:03:16.406Z,29.92
2019-04-10T05:05:47.748Z,21.80
2019-04-10T05:08:17.954Z,23.73
2019-04-10T05:10:48.242Z,27.50
2019-04-10T05:13:18.513Z,23.55
2019-04-10T05:15:49.252Z,26.35
2019-04-10T05:18:19.654Z,26.07
2019-04-10T05:20:50.928Z,23.15
2019-04-10T05:23:22.390Z,23.90
2019-04-10T05:25:53.856Z,23.20
2019-04-10T05:28:24.357Z,24.60
2019-04-10T05:30:54.740Z,27.40
2019-04-10T05:33:24.982Z,24.10
2019-04-10T05:35:55.262Z,23.60
2019-04-10T05:38:25.540Z,25.00
2019-04-10T05:40:55.814Z,22.40
2019-04-10T05:43:26.128Z,56.38
2019-04-10T05:45:57.166Z,26.70
2019-04-10T05:48:27.980Z,24.20
2019-04-10T05:51:02.793Z,26.42
2019-04-10T05:53:30.238Z,21.00
2019-04-10T05:56:01.479Z,27.80
2019-04-10T05:58:31.798Z,19.92
2019-04-10T06:01:04.027Z,22.65
2019-04-10T06:03:34.573Z,22.45
2019-04-10T06:06:06.179Z,22.80
2019-04-10T06:08:37.309Z,20.97
2019-04-10T06:11:08.688Z,25.88
2019-04-10T06:13:39.015Z,25.77
2019-04-10T06:16:09.744Z,24.47
2019-04-10T06:18:40.159Z,24.83
2019-04-10T06:21:10.543Z,25.85
2019-04-10T06:23:41.399Z,23.95
2019-04-10T06:26:12.594Z,23.27
2019-04-10T06:28:43.197Z,25.07
2019-04-10T06:31:14.651Z,24.02
2019-04-10T06:33:45.072Z,23.25
2019-04-10T06:36:15.378Z,25.55
2019-04-10T06:38:45.655Z,25.00
2019-04-10T06:41:17.578Z,22.54
2019-04-10T06:43:47.994Z,23.78
2019-04-10T06:46:18.550Z,27.32
2019-04-10T06:48:50.015Z,24.57
2019-04-10T06:51:21.614Z,31.87
2019-04-10T06:54:00.905Z,26.25
2019-04-10T06:56:25.043Z,24.82
2019-04-10T06:58:56.383Z,25.27
2019-04-10T07:01:39.070Z,27.17
2019-04-10T07:04:04.073Z,27.60
2019-04-10T07:06:47.464Z,25.30
2019-04-10T07:09:09.576Z,25.15
2019-04-10T07:11:39.930Z,28.00
2019-04-10T07:14:12.583Z,27.00
2019-04-10T07:16:42.308Z,31.07
2019-04-10T07:19:13.175Z,30.57
2019-04-10T07:21:43.778Z,25.35
2019-04-10T07:24:16.595Z,26.57
2019-04-10T07:26:48.157Z,25.32
2019-04-10T07:29:21.039Z,24.60
2019-04-10T07:31:50.900Z,26.12
2019-04-10T07:34:25.166Z,24.03
2019-04-10T07:36:53.967Z,26.17
2019-04-10T07:39:28.035Z,26.48
2019-04-10T07:41:57.725Z,26.90
2019-04-10T07:44:28.065Z,23.77
2019-04-10T07:47:00.681Z,25.40
2019-04-10T07:49:31.426Z,26.37
2019-04-10T07:52:03.270Z,31.17
2019-04-10T07:54:34.949Z,24.75
2019-04-10T07:57:06.323Z,25.88
2019-04-10T07:59:37.583Z,26.20
2019-04-10T08:02:08.822Z,23.70
2019-04-10T08:04:40.084Z,26.63
2019-04-10T08:07:11.635Z,27.73
2019-04-10T08:09:43.085Z,25.72
2019-04-10T08:12:13.948Z,24.10
2019-04-10T08:14:44.324Z,27.82
2019-04-10T08:17:14.880Z,25.92
2019-04-10T08:19:45.326Z,25.57
2019-04-10T08:22:15.526Z,25.97
2019-04-10T08:24:47.264Z,23.30
2019-04-10T08:27:17.586Z,24.50
2019-04-10T08:29:48.484Z,26.50
2019-04-10T08:32:18.811Z,23.07
2019-04-10T08:34:51.229Z,22.52
2019-04-10T08:37:21.962Z,22.10
2019-04-10T08:39:52.700Z,22.70
2019-04-10T08:42:23.079Z,27.90
2019-04-10T08:44:54.227Z,22.05
2019-04-10T08:47:24.873Z,25.65
2019-04-10T08:49:55.632Z,27.07
2019-04-10T08:52:25.916Z,21.70
2019-04-10T08:54:57.421Z,23.42
2019-04-10T08:57:27.793Z,22.40
2019-04-10T08:59:58.358Z,21.40
2019-04-10T09:02:28.604Z,23.12
2019-04-10T09:04:59.459Z,22.48
2019-04-10T09:07:30.447Z,20.70
2019-04-10T09:10:01.864Z,21.30
2019-04-10T09:12:32.300Z,19.37
2019-04-10T09:15:02.609Z,20.03
2019-04-10T09:17:33.420Z,23.95
2019-04-10T09:20:06.578Z,20.72
2019-04-10T09:23:06.865Z,22.00
2019-04-10T09:25:09.256Z,19.23
2019-04-10T09:27:39.976Z,23.98
2019-04-10T09:30:10.942Z,20.02
2019-04-10T09:32:42.301Z,19.40
2019-04-10T09:35:14.047Z,19.37
2019-04-10T09:37:44.842Z,19.82
2019-04-10T09:40:16.289Z,20.32
2019-04-10T09:42:46.619Z,19.62
2019-04-10T09:45:17.755Z,20.70
2019-04-10T09:47:48.213Z,19.52
2019-04-10T09:50:19.352Z,19.63
2019-04-10T09:52:50.365Z,21.42
2019-04-10T09:55:20.771Z,21.15
2019-04-10T09:57:51.825Z,17.10
2019-04-10T10:00:23.402Z,19.98
2019-04-10T10:02:53.748Z,20.55
2019-04-10T10:05:24.402Z,20.23
2019-04-10T10:07:56.132Z,17.75
2019-04-10T10:10:26.883Z,18.52
2019-04-10T10:12:57.442Z,20.15
2019-04-10T10:15:27.800Z,24.12
2019-04-10T10:17:59.162Z,17.17
2019-04-10T10:20:30.705Z,16.70
2019-04-10T10:23:01.313Z,18.37
2019-04-10T10:25:31.713Z,17.00
2019-04-10T10:28:02.853Z,19.60
2019-04-10T10:30:33.734Z,17.52
2019-04-10T10:33:04.127Z,18.80
2019-04-10T10:35:35.561Z,16.15
2019-04-10T10:38:07.427Z,17.02
2019-04-10T10:40:39.329Z,18.05
2019-04-10T10:43:10.038Z,19.35
2019-04-10T10:45:40.375Z,22.30
2019-04-10T10:48:11.596Z,17.10
2019-04-10T10:50:41.858Z,16.40
2019-04-10T10:53:12.329Z,18.77
2019-04-10T10:55:42.887Z,17.73
2019-04-10T10:58:13.359Z,16.15
2019-04-10T11:00:44.714Z,16.55
2019-04-10T11:03:16.184Z,13.53
2019-04-10T11:05:46.550Z,18.90
2019-04-10T11:08:17.672Z,14.47
2019-04-10T11:13:20.125Z,15.28
2019-04-10T11:15:50.417Z,16.67
2019-04-10T11:18:20.701Z,19.02
2019-04-10T11:20:52.289Z,14.87
2019-04-10T11:23:24.458Z,14.37
2019-04-10T11:25:55.926Z,15.15
2019-04-10T11:28:30.283Z,14.18
2019-04-10T11:30:59.128Z,13.80
2019-04-10T11:33:30.628Z,14.40
2019-04-10T11:36:01.568Z,15.70
2019-04-10T11:38:33.549Z,13.48
2019-04-10T11:41:06.363Z,14.20
2019-04-10T11:43:37.659Z,16.90
2019-04-10T11:46:10.144Z,15.70
2019-04-10T11:48:44.693Z,15.67
2019-04-10T11:51:14.297Z,15.98
2019-04-10T11:53:50.825Z,13.87
2019-04-10T11:56:21.206Z,18.17
2019-04-10T11:58:56.306Z,14.54
2019-04-10T12:01:25.463Z,15.80
2019-04-10T12:03:56.808Z,14.04
2019-04-10T12:06:29.741Z,20.90
2019-04-10T12:09:19.379Z,16.30
2019-04-10T12:11:33.107Z,13.56
2019-04-10T12:14:03.517Z,14.50
2019-04-10T12:16:35.340Z,14.55
2019-04-10T12:19:06.688Z,15.30
2019-04-10T12:21:37.972Z,13.65
2019-04-10T12:24:09.557Z,14.62
2019-04-10T12:26:42.251Z,12.60
2019-04-10T12:29:14.117Z,17.92
2019-04-10T12:31:45.593Z,15.75
2019-04-10T12:34:16.255Z,13.10
2019-04-10T12:36:46.876Z,15.23
2019-04-10T12:39:18.315Z,13.95
2019-04-10T12:41:49.960Z,12.58
2019-04-10T12:44:21.280Z,15.50
2019-04-10T12:46:51.695Z,13.90
2019-04-10T12:49:21.995Z,14.33
2019-04-10T12:51:52.286Z,13.27
2019-04-10T12:54:23.689Z,16.30
2019-04-10T12:56:54.759Z,13.38
2019-04-10T12:59:25.713Z,13.00
2019-04-10T13:01:57.296Z,15.17
2019-04-10T13:04:28.184Z,13.25
2019-04-10T13:06:59.041Z,13.83
2019-04-10T13:09:29.703Z,15.55
2019-04-10T13:12:00.702Z,15.87
2019-04-10T13:14:31.075Z,15.15
2019-04-10T13:17:01.474Z,13.50
2019-04-10T13:19:31.807Z,13.98
2019-04-10T13:22:02.152Z,19.75
2019-04-10T13:24:33.384Z,15.20
2019-04-10T13:27:04.134Z,12.53
2019-04-10T13:29:34.443Z,13.85
2019-04-10T13:32:05.772Z,15.60
2019-04-10T13:34:36.057Z,14.00
2019-04-10T13:37:06.351Z,13.60
2019-04-10T13:39:37.140Z,15.43
2019-04-10T13:42:09.194Z,16.33
2019-04-10T13:44:40.423Z,13.90
2019-04-10T13:47:10.784Z,14.37
2019-04-10T13:49:42.023Z,14.63
2019-04-10T13:52:12.684Z,15.57
2019-04-10T13:54:44.176Z,14.07
2019-04-10T13:57:15.297Z,14.13
2019-04-10T13:59:45.590Z,15.28
2019-04-10T14:02:20.185Z,14.78
2019-04-10T14:04:51.364Z,15.13
2019-04-10T14:07:22.106Z,15.55
2019-04-10T14:09:52.629Z,14.30
2019-04-10T14:12:22.985Z,13.50
2019-04-10T14:14:53.214Z,19.60
2019-04-10T14:17:23.946Z,16.32
2019-04-10T14:19:54.275Z,15.08
2019-04-10T14:22:24.564Z,14.23
2019-04-10T14:24:55.474Z,13.95
2019-04-10T14:27:28.017Z,13.70
2019-04-10T14:29:58.772Z,14.18
2019-04-10T14:32:31.370Z,17.50
2019-04-10T14:35:03.217Z,13.60
2019-04-10T14:37:33.633Z,15.00
2019-04-10T14:40:06.611Z,15.03
2019-04-10T14:42:38.268Z,17.48
2019-04-10T14:45:09.173Z,15.83
2019-04-10T14:47:39.470Z,18.67
2019-04-10T14:50:10.405Z,14.18
2019-04-10T14:52:41.137Z,14.28
2019-04-10T14:55:12.447Z,17.60
2019-04-10T14:57:43.285Z,14.35
2019-04-10T15:00:24.975Z,15.00
2019-04-10T15:02:55.914Z,14.70
2019-04-10T15:05:26.500Z,13.50
2019-04-10T15:07:57.501Z,14.53
2019-04-10T15:10:27.836Z,14.55
2019-04-10T15:13:07.435Z,15.13
2019-04-10T15:15:30.465Z,17.73
2019-04-10T15:18:00.748Z,15.40
2019-04-10T15:20:31.386Z,14.90
2019-04-10T15:23:02.806Z,13.60
2019-04-10T15:25:33.716Z,13.65
2019-04-10T15:28:04.363Z,13.37
2019-04-10T15:30:34.793Z,16.90
2019-04-10T15:33:05.118Z,13.95
2019-04-10T15:35:35.408Z,14.95
2019-04-10T15:38:06.259Z,11.90
2019-04-10T15:40:36.649Z,14.17
2019-04-10T15:43:06.936Z,12.54
2019-04-10T15:45:37.891Z,12.60
2019-04-10T15:48:08.416Z,15.30
2019-04-10T15:50:39.428Z,13.28
2019-04-10T15:53:11.728Z,14.33
2019-04-10T15:55:42.786Z,11.22
2019-04-10T15:58:13.148Z,15.72
2019-04-10T16:00:43.621Z,12.75
2019-04-10T16:03:13.928Z,11.93
2019-04-10T16:05:44.227Z,11.50
2019-04-10T16:08:16.263Z,11.73
2019-04-10T16:10:57.332Z,14.10
2019-04-10T16:13:42.242Z,14.05
2019-04-10T16:16:14.923Z,14.20
2019-04-10T16:18:46.724Z,14.67
2019-04-10T16:21:17.014Z,14.33
2019-04-10T16:23:49.677Z,12.85
2019-04-10T16:26:19.917Z,11.83
2019-04-10T16:28:50.204Z,11.17
2019-04-10T16:31:21.537Z,11.73
2019-04-10T16:33:52.497Z,12.35
2019-04-10T16:36:23.468Z,11.64
2019-04-10T16:38:55.276Z,12.07
2019-04-10T16:41:28.119Z,13.30
2019-04-10T16:43:57.647Z,13.10
2019-04-10T16:46:27.943Z,13.28
2019-04-10T16:48:58.224Z,12.75
2019-04-10T16:51:28.518Z,14.80
2019-04-10T16:53:58.801Z,11.50
2019-04-10T16:56:29.769Z,15.80
2019-04-10T16:59:00.577Z,12.53
2019-04-10T17:01:31.019Z,12.33
2019-04-10T17:04:01.300Z,12.55
2019-04-10T17:06:32.499Z,14.03
2019-04-10T17:09:03.198Z,14.98
2019-04-10T17:11:33.512Z,12.98
2019-04-10T17:14:04.800Z,16.40
2019-04-10T17:16:35.209Z,13.05
2019-04-10T17:19:05.827Z,16.25
2019-04-10T17:21:36.323Z,15.73
2019-04-10T17:24:07.174Z,13.72
2019-04-10T17:26:37.699Z,18.40
2019-04-10T17:29:09.143Z,15.28
2019-04-10T17:31:40.429Z,12.60
2019-04-10T17:34:10.815Z,12.07
2019-04-10T17:36:41.153Z,13.25
2019-04-10T17:39:13.436Z,14.25
2019-04-10T17:41:43.950Z,13.00
2019-04-10T17:44:14.367Z,12.37
2019-04-10T17:46:44.731Z,12.33
2019-04-10T17:49:15.047Z,14.28
2019-04-10T17:51:45.955Z,15.72
2019-04-10T17:54:16.446Z,13.83
2019-04-10T17:56:46.745Z,13.28
2019-04-10T17:59:18.288Z,12.33
2019-04-10T18:01:49.415Z,12.85
2019-04-10T18:04:20.104Z,16.65
2019-04-10T18:06:50.443Z,15.98
2019-04-10T18:09:21.417Z,14.95
2019-04-10T18:11:51.657Z,14.65
2019-04-10T18:14:22.835Z,14.43
2019-04-10T18:16:54.102Z,13.58
2019-04-10T18:19:25.408Z,14.75
2019-04-10T18:21:56.344Z,13.38
2019-04-10T18:24:26.724Z,13.00
2019-04-10T18:26:58.435Z,13.98
2019-04-10T18:29:29.012Z,13.53
2019-04-10T18:32:00.975Z,14.90
2019-04-10T18:34:31.487Z,15.88
2019-04-10T18:37:02.875Z,13.70
2019-04-10T18:39:34.635Z,12.50
2019-04-10T18:42:05.662Z,13.85
2019-04-10T18:44:35.990Z,16.25
2019-04-10T18:47:06.867Z,13.35
2019-04-10T18:49:37.823Z,19.95
2019-04-10T18:52:08.181Z,13.53
2019-04-10T18:54:39.491Z,19.85
2019-04-10T18:57:09.763Z,15.55
2019-04-10T18:59:44.924Z,14.55
2019-04-10T19:02:32.963Z,13.98
2019-04-10T19:05:11.861Z,16.55
2019-04-10T19:07:42.777Z,17.10
2019-04-10T19:10:14.278Z,15.35
2019-04-10T19:12:45.282Z,15.68
2019-04-10T19:15:16.876Z,13.78
2019-04-10T19:17:47.510Z,15.03
2019-04-10T19:20:18.062Z,17.15
2019-04-10T19:22:48.800Z,14.23
2019-04-10T19:25:19.133Z,16.50
2019-04-10T19:27:50.573Z,12.53
2019-04-10T19:30:31.705Z,14.35
2019-04-10T19:33:01.999Z,15.50
2019-04-10T19:35:32.277Z,14.30
2019-04-10T19:38:03.130Z,13.37
2019-04-10T19:40:33.984Z,14.44
2019-04-10T19:43:04.375Z,12.95
2019-04-10T19:45:36.203Z,12.93
2019-04-10T19:48:08.995Z,13.70
2019-04-10T19:50:39.418Z,13.58
2019-04-10T19:53:11.054Z,13.08
2019-04-10T19:55:42.423Z,14.70
2019-04-10T19:58:12.699Z,13.98
2019-04-10T20:00:42.985Z,13.63
2019-04-10T20:03:13.322Z,13.15
2019-04-10T20:05:43.566Z,12.50
2019-04-10T20:08:13.851Z,20.75
2019-04-10T20:10:44.135Z,20.57
2019-04-10T20:13:14.541Z,15.40
2019-04-10T20:15:44.857Z,12.03
2019-04-10T20:18:15.140Z,10.93
2019-04-10T20:20:45.784Z,16.70
2019-04-10T20:23:16.104Z,13.95
2019-04-10T20:25:46.514Z,11.63
2019-04-10T20:28:16.813Z,14.47
2019-04-10T20:30:47.088Z,13.48
2019-04-10T20:33:17.367Z,11.75
2019-04-10T20:35:48.711Z,17.40
2019-04-10T20:38:19.749Z,14.40
2019-04-10T20:40:51.958Z,13.58
2019-04-10T20:43:22.781Z,13.68
2019-04-10T20:45:53.794Z,18.52
2019-04-10T20:48:24.513Z,17.25
2019-04-10T20:50:55.054Z,14.28
2019-04-10T20:53:26.233Z,14.87
2019-04-10T20:55:57.729Z,12.30
2019-04-10T20:58:29.458Z,14.68
2019-04-10T21:00:59.933Z,17.02
2019-04-10T21:03:30.186Z,14.28
2019-04-10T21:06:00.790Z,14.50
2019-04-10T21:08:31.075Z,13.35
2019-04-10T21:11:01.371Z,13.75
2019-04-10T21:13:31.954Z,14.30
2019-04-10T21:16:02.976Z,13.60
2019-04-10T21:18:33.517Z,15.90
2019-04-10T21:21:03.864Z,15.57
2019-04-10T21:23:34.146Z,12.90
2019-04-10T21:26:04.434Z,13.70
2019-04-10T21:28:34.792Z,15.20
2019-04-10T21:31:19.063Z,14.58
2019-04-10T21:34:07.700Z,16.13
2019-04-10T21:36:39.211Z,14.00
2019-04-10T21:39:11.046Z,15.32
2019-04-10T21:41:42.047Z,14.87
2019-04-10T21:44:12.992Z,14.18
2019-04-10T21:46:44.429Z,16.65
2019-04-10T21:49:15.539Z,16.07
2019-04-10T21:51:46.070Z,13.98
2019-04-10T21:54:16.387Z,15.60
2019-04-10T21:56:46.645Z,16.57
2019-04-10T21:59:16.937Z,20.65
2019-04-10T22:01:48.771Z,18.00
2019-04-10T22:04:19.121Z,14.53
2019-04-10T22:07:07.677Z,18.43
2019-04-10T22:09:41.069Z,15.90
2019-04-10T22:12:23.658Z,19.70
2019-04-10T22:14:45.968Z,18.00
2019-04-10T22:17:17.065Z,23.05
2019-04-10T22:19:47.999Z,16.95
2019-04-10T22:22:20.308Z,17.60
2019-04-10T22:24:50.660Z,16.57
2019-04-10T22:27:20.932Z,17.42
2019-04-10T22:29:52.161Z,19.98
2019-04-10T22:32:22.759Z,19.03
2019-04-10T22:34:52.982Z,20.75
2019-04-10T22:37:23.650Z,18.48
2019-04-10T22:39:54.595Z,15.68
2019-04-10T22:42:36.642Z,16.77
2019-04-10T22:44:58.158Z,18.67
2019-04-10T22:47:29.618Z,19.80
2019-04-10T22:50:00.784Z,18.95
2019-04-10T22:52:32.380Z,17.60
2019-04-10T22:55:03.647Z,17.00
2019-04-10T22:57:34.802Z,16.50
2019-04-10T23:00:07.335Z,18.57
2019-04-10T23:02:37.739Z,17.30
2019-04-10T23:05:08.163Z,18.55
2019-04-10T23:07:38.436Z,18.70
2019-04-10T23:10:13.210Z,18.32
2019-04-10T23:12:55.130Z,16.67
2019-04-10T23:15:17.585Z,19.02
2019-04-10T23:17:48.654Z,17.67
2019-04-10T23:20:19.189Z,16.93
2019-04-10T23:22:50.514Z,19.65
2019-04-10T23:25:21.143Z,16.73
2019-04-10T23:27:54.605Z,18.48
2019-04-10T23:30:24.636Z,20.30
2019-04-10T23:32:55.435Z,21.23
2019-04-10T23:35:25.684Z,21.12
2019-04-10T23:37:56.226Z,16.70
2019-04-10T23:40:27.837Z,17.70
2019-04-10T23:43:08.019Z,16.07
2019-04-10T23:45:31.373Z,15.65
2019-04-10T23:48:02.043Z,18.95
2019-04-10T23:50:32.450Z,16.95
